createdAt,value
2018-09-24T00:00:39.348Z,88.22
2018-09-24T00:01:49.236Z,88.22
2018-09-24T00:02:59.227Z,87.65
2018-09-24T00:04:09.376Z,88.12
2018-09-24T00:05:19.286Z,88.22
2018-09-24T00:06:29.522Z,88.12
2018-09-24T00:07:39.726Z,87.93
2018-09-24T00:08:49.921Z,88.6
2018-09-24T00:10:00.099Z,88.6
2018-09-24T00:11:10.248Z,88.12
2018-09-24T00:12:20.383Z,88.31
2018-09-24T00:13:30.783Z,88.03
2018-09-24T00:14:40.952Z,88.22
2018-09-24T00:15:51.093Z,87.93
2018-09-24T00:17:01.241Z,87.93
2018-09-24T00:18:11.361Z,88.12
2018-09-24T00:19:21.501Z,88.31
2018-09-24T00:20:31.673Z,88.31
2018-09-24T00:21:41.828Z,88.12
2018-09-24T00:22:51.648Z,88.31
2018-09-24T00:24:01.812Z,88.22
2018-09-24T00:25:12.044Z,88.12
2018-09-24T00:26:22.240Z,88.31
2018-09-24T00:27:31.845Z,88.22
2018-09-24T00:28:41.983Z,88.41
2018-09-24T00:29:52.168Z,88.41
2018-09-24T00:31:02.290Z,88.41
2018-09-24T00:32:12.209Z,88.12
2018-09-24T00:33:22.041Z,88.31
2018-09-24T00:34:32.611Z,88.12
2018-09-24T00:35:42.809Z,88.41
2018-09-24T00:36:52.729Z,88.51
2018-09-24T00:38:02.907Z,87.84
2018-09-24T00:39:13.098Z,88.03
2018-09-24T00:40:23.236Z,88.6
2018-09-24T00:41:33.339Z,88.41
2018-09-24T00:42:43.272Z,88.03
2018-09-24T00:43:53.407Z,88.41
2018-09-24T00:45:04.138Z,88.51
2018-09-24T00:46:14.279Z,88.79
2018-09-24T00:47:24.415Z,88.6
2018-09-24T00:48:34.558Z,88.03
2018-09-24T00:49:44.736Z,88.12
2018-09-24T00:50:54.543Z,88.41
2018-09-24T00:52:04.807Z,88.12
2018-09-24T00:53:15.013Z,88.22
2018-09-24T00:54:24.871Z,88.31
2018-09-24T00:55:34.995Z,88.03
2018-09-24T00:56:45.209Z,87.93
2018-09-24T00:57:55.417Z,87.84
2018-09-24T00:59:05.645Z,88.12
2018-09-24T01:00:15.807Z,87.84
2018-09-24T01:01:25.958Z,87.93
2018-09-24T01:02:36.091Z,87.65
2018-09-24T01:03:46.395Z,87.36
2018-09-24T01:04:56.751Z,87.27
2018-09-24T01:06:06.900Z,87.17
2018-09-24T01:07:16.881Z,87.17
2018-09-24T01:08:27.090Z,87.55
2018-09-24T01:09:37.234Z,87.46
2018-09-24T01:10:47.402Z,87.36
2018-09-24T01:11:57.524Z,87.36
2018-09-24T01:13:07.926Z,87.46
2018-09-24T01:14:18.094Z,87.65
2018-09-24T01:15:27.881Z,87.46
2018-09-24T01:16:38.066Z,87.46
2018-09-24T01:17:48.285Z,87.46
2018-09-24T01:18:58.399Z,87.36
2018-09-24T01:20:08.525Z,87.55
2018-09-24T01:21:18.662Z,87.65
2018-09-24T01:22:28.568Z,87.27
2018-09-24T01:23:38.490Z,87.17
2018-09-24T01:24:48.617Z,87.55
2018-09-24T01:25:58.753Z,87.36
2018-09-24T01:27:09.004Z,87.55
2018-09-24T01:28:19.258Z,87.55
2018-09-24T01:29:29.398Z,87.55
2018-09-24T01:30:39.636Z,87.46
2018-09-24T01:31:49.884Z,87.17
2018-09-24T01:33:00.079Z,87.36
2018-09-24T01:34:10.290Z,87.74
2018-09-24T01:35:20.152Z,87.65
2018-09-24T01:36:30.329Z,87.65
2018-09-24T01:37:40.518Z,87.36
2018-09-24T01:38:50.786Z,87.65
2018-09-24T01:40:01.036Z,87.55
2018-09-24T01:41:10.981Z,87.36
2018-09-24T01:42:21.140Z,87.27
2018-09-24T01:43:31.256Z,86.98
2018-09-24T01:44:41.428Z,87.27
2018-09-24T01:45:51.577Z,86.79
2018-09-24T01:47:01.456Z,86.79
2018-09-24T01:48:11.328Z,86.98
2018-09-24T01:49:21.448Z,87.07
2018-09-24T01:50:31.579Z,86.98
2018-09-24T01:51:41.707Z,87.07
2018-09-24T01:52:51.560Z,87.07
2018-09-24T01:54:01.698Z,86.12
2018-09-24T01:55:11.826Z,86.6
2018-09-24T01:56:21.711Z,86.32
2018-09-24T01:57:32.009Z,86.22
2018-09-24T01:58:42.149Z,86.12
2018-09-24T01:59:52.322Z,86.6
2018-09-24T02:01:03.482Z,86.79
2018-09-24T02:02:13.340Z,86.69
2018-09-24T02:03:23.269Z,86.03
2018-09-24T02:04:33.396Z,86.22
2018-09-24T02:05:43.297Z,86.22
2018-09-24T02:06:53.422Z,86.12
2018-09-24T02:08:03.565Z,86.51
2018-09-24T02:09:13.997Z,86.32
2018-09-24T02:10:23.872Z,86.32
2018-09-24T02:11:33.486Z,86.12
2018-09-24T02:12:43.430Z,86.6
2018-09-24T02:13:53.550Z,86.41
2018-09-24T02:15:03.780Z,86.51
2018-09-24T02:16:14.729Z,86.41
2018-09-24T02:17:24.840Z,86.51
2018-09-24T02:18:34.944Z,86.22
2018-09-24T02:19:45.059Z,86.32
2018-09-24T02:20:55.363Z,86.51
2018-09-24T02:22:05.586Z,86.41
2018-09-24T02:23:18.486Z,86.22
2018-09-24T02:24:29.893Z,86.51
2018-09-24T02:25:40.249Z,86.51
2018-09-24T02:26:50.697Z,86.6
2018-09-24T02:28:00.837Z,86.32
2018-09-24T02:29:11.018Z,86.51
2018-09-24T02:30:21.142Z,86.41
2018-09-24T02:31:31.304Z,86.03
2018-09-24T02:32:41.451Z,86.03
2018-09-24T02:33:51.685Z,86.03
2018-09-24T02:35:01.932Z,86.03
2018-09-24T02:36:12.089Z,85.84
2018-09-24T02:37:22.321Z,86.32
2018-09-24T02:38:33.472Z,86.03
2018-09-24T02:39:43.740Z,86.51
2018-09-24T02:40:54.021Z,86.03
2018-09-24T02:42:04.173Z,86.51
2018-09-24T02:43:14.313Z,86.41
2018-09-24T02:44:24.405Z,86.32
2018-09-24T02:45:34.552Z,86.51
2018-09-24T02:46:44.411Z,86.03
2018-09-24T02:47:54.523Z,86.22
2018-09-24T02:49:04.692Z,86.22
2018-09-24T02:50:14.843Z,86.12
2018-09-24T02:51:24.955Z,86.12
2018-09-24T02:52:35.174Z,86.03
2018-09-24T02:53:45.432Z,86.22
2018-09-24T02:54:55.638Z,85.93
2018-09-24T02:56:05.805Z,85.84
2018-09-24T02:57:16.088Z,86.12
2018-09-24T02:58:26.259Z,86.12
2018-09-24T02:59:36.495Z,86.22
2018-09-24T03:00:46.862Z,86.03
2018-09-24T03:01:56.715Z,86.12
2018-09-24T03:03:06.891Z,86.12
2018-09-24T03:04:17.118Z,86.03
2018-09-24T03:05:27.251Z,85.55
2018-09-24T03:06:37.406Z,85.84
2018-09-24T03:07:47.762Z,85.74
2018-09-24T03:08:57.923Z,85.93
2018-09-24T03:10:08.172Z,85.84
2018-09-24T03:11:18.303Z,85.84
2018-09-24T03:12:28.505Z,85.84
2018-09-24T03:13:38.386Z,85.74
2018-09-24T03:14:48.455Z,85.55
2018-09-24T03:15:58.653Z,85.64
2018-09-24T03:17:08.844Z,85.74
2018-09-24T03:18:18.960Z,85.46
2018-09-24T03:19:29.075Z,85.46
2018-09-24T03:20:39.223Z,85.64
2018-09-24T03:21:49.456Z,85.55
2018-09-24T03:22:59.666Z,85.55
2018-09-24T03:24:09.828Z,85.55
2018-09-24T03:25:19.973Z,85.46
2018-09-24T03:26:30.264Z,85.64
2018-09-24T03:27:40.641Z,85.55
2018-09-24T03:28:50.768Z,85.64
2018-09-24T03:30:00.944Z,85.08
2018-09-24T03:31:11.160Z,84.98
2018-09-24T03:32:21.411Z,85.17
2018-09-24T03:33:31.546Z,85.36
2018-09-24T03:34:41.419Z,85.46
2018-09-24T03:35:51.575Z,85.36
2018-09-24T03:37:01.826Z,84.98
2018-09-24T03:38:11.688Z,85.08
2018-09-24T03:39:21.805Z,84.88
2018-09-24T03:40:31.942Z,84.69
2018-09-24T03:41:42.222Z,84.5
2018-09-24T03:42:52.645Z,84.88
2018-09-24T03:44:02.724Z,84.5
2018-09-24T03:45:12.356Z,84.5
2018-09-24T03:46:22.486Z,84.5
2018-09-24T03:47:32.397Z,84.41
2018-09-24T03:48:42.516Z,84.5
2018-09-24T03:49:52.413Z,84.56
2018-09-24T03:51:02.529Z,84.69
2018-09-24T03:52:12.670Z,84.5
2018-09-24T03:53:22.869Z,84.65
2018-09-24T03:54:33.044Z,84.84
2018-09-24T03:55:42.944Z,84.84
2018-09-24T03:56:52.788Z,84.75
2018-09-24T03:58:02.912Z,84.88
2018-09-24T03:59:13.044Z,84.65
2018-09-24T04:00:23.229Z,84.46
2018-09-24T04:01:33.401Z,84.65
2018-09-24T04:02:43.383Z,84.65
2018-09-24T04:03:53.514Z,84.84
2018-09-24T04:05:03.305Z,84.65
2018-09-24T04:06:13.455Z,85.32
2018-09-24T04:07:23.585Z,84.65
2018-09-24T04:08:33.789Z,84.75
2018-09-24T04:09:44.426Z,84.84
2018-09-24T04:10:55.221Z,84.65
2018-09-24T04:12:05.643Z,84.56
2018-09-24T04:13:15.790Z,84.27
2018-09-24T04:14:25.946Z,84.46
2018-09-24T04:15:42.712Z,84.65
2018-09-24T04:16:54.104Z,84.65
2018-09-24T04:18:07.503Z,84.65
2018-09-24T04:19:17.446Z,84.65
2018-09-24T04:20:27.884Z,84.65
2018-09-24T04:21:38.055Z,84.65
2018-09-24T04:22:48.218Z,84.65
2018-09-24T04:23:58.119Z,84.65
2018-09-24T04:25:08.239Z,84.65
2018-09-24T04:26:19.052Z,85.13
2018-09-24T04:27:29.715Z,84.75
2018-09-24T04:28:39.834Z,84.75
2018-09-24T04:29:49.995Z,84.65
2018-09-24T04:31:00.171Z,84.94
2018-09-24T04:32:10.405Z,84.84
2018-09-24T04:33:20.554Z,84.84
2018-09-24T04:34:30.670Z,84.65
2018-09-24T04:35:40.820Z,85.03
2018-09-24T04:36:50.974Z,84.65
2018-09-24T04:38:01.111Z,84.65
2018-09-24T04:39:11.255Z,85.22
2018-09-24T04:40:21.456Z,84.65
2018-09-24T04:41:31.827Z,84.94
2018-09-24T04:42:41.985Z,84.56
2018-09-24T04:43:52.168Z,84.65
2018-09-24T04:45:02.414Z,84.27
2018-09-24T04:46:12.667Z,84.36
2018-09-24T04:47:22.851Z,84.46
2018-09-24T04:48:33.041Z,84.36
2018-09-24T04:49:43.163Z,84.46
2018-09-24T04:50:53.293Z,83.8
2018-09-24T04:52:03.418Z,83.51
2018-09-24T04:53:13.976Z,83.41
2018-09-24T04:54:24.201Z,83.32
2018-09-24T04:55:34.554Z,83.32
2018-09-24T04:56:45.298Z,83.32
2018-09-24T04:59:35.174Z,82.56
2018-09-24T05:00:45.313Z,82.46
2018-09-24T05:01:55.448Z,82.08
2018-09-24T05:03:06.088Z,82.56
2018-09-24T05:04:16.630Z,82.93
2018-09-24T05:05:26.772Z,83.03
2018-09-24T05:06:36.965Z,83.03
2018-09-24T05:07:46.870Z,83.22
2018-09-24T05:08:57.019Z,83.41
2018-09-24T05:10:06.817Z,83.89
2018-09-24T05:11:17.129Z,83.98
2018-09-24T05:12:27.364Z,84.65
2018-09-24T05:13:37.573Z,84.27
2018-09-24T05:14:47.720Z,84.75
2018-09-24T05:15:57.861Z,84.84
2018-09-24T05:17:08.298Z,85.32
2018-09-24T05:18:18.439Z,85.32
2018-09-24T05:19:27.869Z,85.32
2018-09-24T05:20:38.208Z,85.22
2018-09-24T05:21:48.505Z,85.13
2018-09-24T05:22:58.720Z,85.32
2018-09-24T05:24:09.106Z,85.13
2018-09-24T05:25:19.427Z,85.32
2018-09-24T05:26:29.568Z,85.32
2018-09-24T05:27:40.129Z,84.46
2018-09-24T05:28:50.275Z,84.65
2018-09-24T05:30:00.414Z,84.65
2018-09-24T05:31:10.529Z,84.56
2018-09-24T05:32:20.757Z,84.75
2018-09-24T05:33:31.184Z,84.65
2018-09-24T05:34:41.938Z,84.27
2018-09-24T05:35:53.304Z,84.75
2018-09-24T05:37:03.654Z,84.17
2018-09-24T05:38:13.809Z,84.36
2018-09-24T05:39:23.993Z,84.36
2018-09-24T05:40:34.134Z,83.51
2018-09-24T05:41:44.283Z,83.61
2018-09-24T05:42:54.464Z,83.7
2018-09-24T05:44:04.441Z,83.32
2018-09-24T05:45:14.558Z,83.22
2018-09-24T05:46:24.686Z,83.22
2018-09-24T05:47:34.931Z,83.32
2018-09-24T05:48:45.282Z,83.03
2018-09-24T05:49:55.496Z,83.41
2018-09-24T05:51:05.632Z,83.22
2018-09-24T05:52:15.833Z,83.89
2018-09-24T05:53:26.025Z,83.89
2018-09-24T05:54:36.253Z,83.32
2018-09-24T05:55:46.425Z,83.61
2018-09-24T05:56:56.578Z,83.36
2018-09-24T05:58:06.431Z,83.26
2018-09-24T05:59:16.658Z,83.32
2018-09-24T06:00:27.275Z,82.84
2018-09-24T06:01:37.279Z,82.89
2018-09-24T06:02:46.820Z,83.17
2018-09-24T06:03:57.147Z,82.98
2018-09-24T06:05:07.331Z,83.36
2018-09-24T06:06:17.584Z,82.6
2018-09-24T06:07:27.802Z,82.5
2018-09-24T06:08:37.693Z,82.03
2018-09-24T06:09:47.846Z,82.41
2018-09-24T06:10:58.021Z,82.21
2018-09-24T06:12:08.184Z,82.31
2018-09-24T06:13:18.316Z,81.74
2018-09-24T06:14:28.500Z,81.46
2018-09-24T06:15:38.829Z,81.74
2018-09-24T06:16:48.692Z,81.26
2018-09-24T06:17:58.816Z,81.07
2018-09-24T06:19:09.150Z,81.26
2018-09-24T06:20:19.627Z,81.07
2018-09-24T06:21:29.849Z,81.17
2018-09-24T06:22:40.078Z,81.07
2018-09-24T06:23:50.232Z,81.26
2018-09-24T06:25:00.464Z,80.31
2018-09-24T06:26:10.673Z,80.69
2018-09-24T06:27:20.565Z,80.6
2018-09-24T06:28:31.072Z,80.69
2018-09-24T06:29:41.414Z,80.69
2018-09-24T06:30:51.500Z,80.5
2018-09-24T06:32:01.624Z,80.6
2018-09-24T06:33:11.757Z,80.35
2018-09-24T06:34:21.671Z,80.31
2018-09-24T06:35:32.323Z,80.12
2018-09-24T06:36:42.202Z,80.02
2018-09-24T06:37:52.559Z,80.6
2018-09-24T06:39:02.685Z,80.79
2018-09-24T06:40:12.912Z,80.5
2018-09-24T06:41:22.841Z,80.5
2018-09-24T06:42:32.970Z,80.35
2018-09-24T06:43:42.471Z,80.35
2018-09-24T06:44:52.614Z,80.83
2018-09-24T06:46:02.731Z,80.64
2018-09-24T06:47:12.865Z,80.35
2018-09-24T06:48:23.025Z,80.64
2018-09-24T06:49:33.284Z,80.16
2018-09-24T06:50:43.700Z,80.35
2018-09-24T06:51:53.469Z,80.44
2018-09-24T06:53:03.576Z,79.59
2018-09-24T06:54:13.765Z,79.21
2018-09-24T06:55:23.977Z,79.68
2018-09-24T06:56:34.151Z,79.59
2018-09-24T06:57:44.340Z,79.21
2018-09-24T06:58:54.474Z,79.88
2018-09-24T07:00:04.723Z,79.4
2018-09-24T07:01:14.391Z,79.68
2018-09-24T07:02:24.538Z,79.68
2018-09-24T07:03:34.682Z,80.07
2018-09-24T07:04:45.226Z,79.49
2018-09-24T07:05:55.444Z,79.11
2018-09-24T07:07:05.606Z,79.11
2018-09-24T07:08:15.745Z,79.97
2018-09-24T07:09:25.911Z,79.59
2018-09-24T07:10:36.047Z,80.07
2018-09-24T07:11:46.185Z,79.88
2018-09-24T07:12:56.311Z,80.26
2018-09-24T07:14:06.228Z,79.21
2018-09-24T07:15:16.363Z,79.02
2018-09-24T07:16:26.490Z,79.21
2018-09-24T07:17:36.619Z,78.83
2018-09-24T07:18:46.806Z,79.06
2018-09-24T07:19:56.930Z,78.67
2018-09-24T07:21:07.070Z,77.82
2018-09-24T07:22:17.240Z,77.72
2018-09-24T07:23:27.363Z,77.82
2018-09-24T07:24:37.594Z,76.86
2018-09-24T07:25:47.796Z,76.77
2018-09-24T07:26:57.663Z,76.62
2018-09-24T07:28:07.672Z,75.91
2018-09-24T07:29:18.292Z,75.37
2018-09-24T07:30:28.483Z,74.52
2018-09-24T07:31:38.899Z,74.61
2018-09-24T07:32:48.847Z,74.42
2018-09-24T07:33:59.010Z,73.94
2018-09-24T07:35:09.165Z,73.12
2018-09-24T07:36:19.304Z,72.64
2018-09-24T07:37:29.487Z,72.36
2018-09-24T07:38:39.697Z,70.92
2018-09-24T07:39:49.562Z,70.96
2018-09-24T07:40:59.682Z,70.39
2018-09-24T07:42:09.940Z,69.62
2018-09-24T07:43:20.163Z,68.99
2018-09-24T07:44:30.789Z,69.47
2018-09-24T07:45:40.983Z,68.9
2018-09-24T07:46:51.181Z,69.47
2018-09-24T07:48:01.334Z,68.16
2018-09-24T07:49:11.471Z,68.07
2018-09-24T07:50:21.619Z,65.42
2018-09-24T07:51:31.760Z,63.26
2018-09-24T07:52:41.950Z,60.41
2018-09-24T07:53:52.206Z,59.23
2018-09-24T07:55:02.336Z,57.28
2018-09-24T07:56:12.514Z,55.19
2018-09-24T07:57:22.674Z,54.55
2018-09-24T07:58:32.847Z,55.29
2018-09-24T07:59:42.999Z,54.9
2018-09-24T08:00:53.533Z,54.16
2018-09-24T08:02:03.673Z,55
2018-09-24T08:03:13.903Z,54.52
2018-09-24T08:04:24.072Z,52.98
2018-09-24T08:05:34.379Z,53.39
2018-09-24T08:06:44.562Z,52.75
2018-09-24T08:07:54.931Z,52.84
2018-09-24T08:09:04.844Z,49.51
2018-09-24T08:10:15.255Z,49.33
2018-09-24T08:11:25.420Z,48.76
2018-09-24T08:12:35.381Z,48.59
2018-09-24T08:13:45.555Z,47.94
2018-09-24T08:14:55.713Z,47.27
2018-09-24T08:16:05.902Z,48.93
2018-09-24T08:17:16.036Z,45.36
2018-09-24T08:18:27.281Z,45.75
2018-09-24T08:19:37.413Z,45.46
2018-09-24T08:20:47.282Z,44.98
2018-09-24T08:21:57.499Z,44.21
2018-09-24T08:23:07.713Z,43.85
2018-09-24T08:24:17.897Z,44.71
2018-09-24T08:25:27.835Z,44.13
2018-09-24T08:26:37.971Z,42.23
2018-09-24T08:27:48.118Z,40.97
2018-09-24T08:28:58.411Z,42.79
2018-09-24T08:30:08.621Z,42.97
2018-09-24T08:31:18.494Z,43.05
2018-09-24T08:32:28.633Z,42.19
2018-09-24T08:33:38.519Z,42.67
2018-09-24T08:34:48.941Z,43.05
2018-09-24T08:35:59.142Z,42.28
2018-09-24T08:37:09.321Z,41.71
2018-09-24T08:38:19.591Z,42.4
2018-09-24T08:39:29.876Z,43.07
2018-09-24T08:40:40.119Z,44.42
2018-09-24T08:41:49.997Z,43.63
2018-09-24T08:43:00.144Z,44.38
2018-09-24T08:44:10.387Z,45.34
2018-09-24T08:45:20.874Z,44.48
2018-09-24T08:46:31.038Z,43.99
2018-09-24T08:47:41.626Z,43.59
2018-09-24T08:48:51.787Z,43.2
2018-09-24T08:50:01.868Z,43.97
2018-09-24T08:51:12.071Z,43.13
2018-09-24T08:52:22.267Z,42.96
2018-09-24T08:53:32.351Z,43.32
2018-09-24T08:54:42.712Z,43.41
2018-09-24T08:55:52.780Z,43.78
2018-09-24T08:57:02.742Z,44.34
2018-09-24T08:58:12.486Z,44.45
2018-09-24T08:59:22.652Z,45.68
2018-09-24T09:00:32.809Z,45.87
2018-09-24T09:01:43.016Z,46.04
2018-09-24T09:02:53.316Z,46.89
2018-09-24T09:04:03.538Z,47.75
2018-09-24T09:05:13.774Z,47.72
2018-09-24T09:06:24.125Z,47.72
2018-09-24T09:07:34.255Z,46.89
2018-09-24T09:08:44.460Z,45.95
2018-09-24T09:09:54.831Z,46.23
2018-09-24T09:11:05.065Z,45.13
2018-09-24T09:12:15.515Z,43.41
2018-09-24T09:13:25.705Z,42.11
2018-09-24T09:14:36.085Z,41.05
2018-09-24T09:15:46.217Z,40.11
2018-09-24T09:16:56.334Z,39.82
2018-09-24T09:18:06.243Z,39.53
2018-09-24T09:19:16.434Z,39.62
2018-09-24T09:20:26.319Z,40.49
2018-09-24T09:21:36.522Z,41.63
2018-09-24T09:22:46.670Z,42.19
2018-09-24T09:23:56.972Z,43.99
2018-09-24T09:25:07.575Z,44.17
2018-09-24T09:26:17.736Z,44.24
2018-09-24T09:27:28.609Z,45.18
2018-09-24T09:28:38.766Z,45.18
2018-09-24T09:29:48.958Z,45.06
2018-09-24T09:30:59.351Z,45.47
2018-09-24T09:32:09.523Z,44.62
2018-09-24T09:33:19.657Z,43.2
2018-09-24T09:34:29.815Z,42.74
2018-09-24T09:35:39.975Z,42.82
2018-09-24T09:36:50.196Z,43.51
2018-09-24T09:38:00.350Z,42.38
2018-09-24T09:39:10.488Z,41.63
2018-09-24T09:40:20.280Z,40.95
2018-09-24T09:41:30.669Z,39.91
2018-09-24T09:42:40.588Z,39.54
2018-09-24T09:43:50.477Z,38.49
2018-09-24T09:45:00.640Z,37.91
2018-09-24T09:46:10.804Z,36.77
2018-09-24T09:47:20.942Z,37.06
2018-09-24T09:48:31.303Z,35.8
2018-09-24T09:49:41.619Z,36.48
2018-09-24T09:50:51.790Z,36.67
2018-09-24T09:52:02.018Z,36.87
2018-09-24T09:53:12.151Z,36.77
2018-09-24T09:54:22.303Z,36.38
2018-09-24T09:55:32.475Z,36.38
2018-09-24T09:56:42.650Z,36.96
2018-09-24T09:57:52.821Z,36.38
2018-09-24T09:59:03.071Z,36.09
2018-09-24T10:00:13.172Z,35.22
2018-09-24T10:01:23.367Z,34.94
2018-09-24T10:02:33.593Z,35.8
2018-09-24T10:03:43.825Z,35.8
2018-09-24T10:04:54.132Z,35.61
2018-09-24T10:06:04.409Z,36.19
2018-09-24T10:07:14.566Z,35.61
2018-09-24T10:08:24.233Z,35.22
2018-09-24T10:09:34.374Z,35.5
2018-09-24T10:10:44.556Z,36.27
2018-09-24T10:11:54.837Z,34.72
2018-09-24T10:13:05.054Z,34.34
2018-09-24T10:14:15.224Z,34.8
2018-09-24T10:15:25.577Z,34.8
2018-09-24T10:16:35.736Z,33.66
2018-09-24T10:17:46.357Z,33.28
2018-09-24T10:18:56.307Z,33.86
2018-09-24T10:20:06.469Z,33.66
2018-09-24T10:21:16.613Z,33.57
2018-09-24T10:22:26.878Z,34.24
2018-09-24T10:23:37.372Z,33.68
2018-09-24T10:24:47.540Z,33.29
2018-09-24T10:25:57.171Z,32.82
2018-09-24T10:27:07.363Z,32.06
2018-09-24T10:28:17.522Z,32.82
2018-09-24T10:29:27.715Z,33.1
2018-09-24T10:30:37.894Z,32.23
2018-09-24T10:31:47.765Z,32.33
2018-09-24T10:32:57.942Z,31.94
2018-09-24T10:34:08.087Z,32.06
2018-09-24T10:35:18.309Z,32.15
2018-09-24T10:36:28.459Z,30.8
2018-09-24T10:37:38.373Z,30.9
2018-09-24T10:38:48.192Z,30.4
2018-09-24T10:39:58.392Z,30.49
2018-09-24T10:41:08.546Z,31.17
2018-09-24T10:42:18.712Z,31.86
2018-09-24T10:43:28.878Z,30.99
2018-09-24T10:44:39.129Z,31.18
2018-09-24T10:45:48.670Z,31.57
2018-09-24T10:46:59.279Z,31.59
2018-09-24T10:48:09.470Z,31.98
2018-09-24T10:49:19.668Z,32.36
2018-09-24T10:50:29.882Z,31.68
2018-09-24T10:51:39.806Z,32.36
2018-09-24T10:52:49.972Z,32.84
2018-09-24T10:54:00.211Z,31.88
2018-09-24T10:55:10.359Z,32.75
2018-09-24T10:56:20.568Z,33.6
2018-09-24T10:57:30.743Z,34.26
2018-09-24T10:58:40.886Z,34.45
2018-09-24T10:59:51.110Z,34.16
2018-09-24T11:01:01.004Z,34.56
2018-09-24T11:02:11.262Z,33.7
2018-09-24T11:03:21.436Z,33.4
2018-09-24T11:04:31.588Z,33.89
2018-09-24T11:05:41.506Z,34.08
2018-09-24T11:06:51.845Z,34.36
2018-09-24T11:08:02.319Z,34.38
2018-09-24T11:09:12.530Z,33.7
2018-09-24T11:10:22.948Z,33.7
2018-09-24T11:11:33.330Z,33.8
2018-09-24T11:12:43.244Z,33.6
2018-09-24T11:13:53.405Z,33.4
2018-09-24T11:15:03.545Z,34.28
2018-09-24T11:16:14.180Z,33.6
2018-09-24T11:17:25.579Z,33.6
2018-09-24T11:18:36.551Z,34.38
2018-09-24T11:19:46.712Z,34.95
2018-09-24T11:20:56.594Z,34.95
2018-09-24T11:22:06.951Z,33.98
2018-09-24T11:23:17.020Z,34.94
2018-09-24T11:24:27.219Z,35.69
2018-09-24T11:25:37.425Z,36.25
2018-09-24T11:26:47.559Z,35.77
2018-09-24T11:27:57.781Z,36.23
2018-09-24T11:29:08.035Z,36.79
2018-09-24T11:30:18.220Z,37.18
2018-09-24T11:31:28.398Z,37.27
2018-09-24T11:32:38.341Z,37.26
2018-09-24T11:33:48.506Z,37.83
2018-09-24T11:34:58.675Z,38.2
2018-09-24T11:36:08.587Z,38.39
2018-09-24T11:37:18.379Z,38.76
2018-09-24T11:38:28.540Z,39.51
2018-09-24T11:39:38.687Z,39.97
2018-09-24T11:40:49.094Z,40.73
2018-09-24T11:41:59.227Z,41.49
2018-09-24T11:43:11.339Z,42.13
2018-09-24T11:44:21.497Z,42.04
2018-09-24T11:45:31.709Z,42.33
2018-09-24T11:46:42.149Z,42.13
2018-09-24T11:47:52.661Z,42.79
2018-09-24T11:49:02.919Z,43.17
2018-09-24T11:50:13.117Z,44.01
2018-09-24T11:51:23.361Z,44.01
2018-09-24T11:52:33.569Z,44.3
2018-09-24T11:53:43.460Z,44.59
2018-09-24T11:54:53.593Z,45.16
2018-09-24T11:56:03.721Z,44.49
2018-09-24T11:57:13.638Z,44.4
2018-09-24T11:58:23.536Z,43.46
2018-09-24T11:59:33.706Z,42.9
2018-09-24T12:00:43.936Z,43
2018-09-24T12:01:54.181Z,42.93
2018-09-24T12:03:04.189Z,42.64
2018-09-24T12:04:14.062Z,42.16
2018-09-24T12:05:25.169Z,41.96
2018-09-24T12:06:35.329Z,41.77
2018-09-24T12:07:45.475Z,40.83
2018-09-24T12:08:55.668Z,40.28
2018-09-24T12:10:05.839Z,40.47
2018-09-24T12:11:16.491Z,40.01
2018-09-24T12:12:26.673Z,39.45
2018-09-24T12:13:36.804Z,38.79
2018-09-24T12:14:46.937Z,37.27
2018-09-24T12:15:57.082Z,36.41
2018-09-24T12:17:07.265Z,35.36
2018-09-24T12:18:17.147Z,34.78
2018-09-24T12:19:27.311Z,34.61
2018-09-24T12:20:37.441Z,33.74
2018-09-24T12:21:47.794Z,33.84
2018-09-24T12:22:57.941Z,34.42
2018-09-24T12:24:08.182Z,34.5
2018-09-24T12:25:18.282Z,34.86
2018-09-24T12:26:28.490Z,35.62
2018-09-24T12:27:38.291Z,36.27
2018-09-24T12:28:48.493Z,37.14
2018-09-24T12:29:58.681Z,37.77
2018-09-24T12:31:08.910Z,38.64
2018-09-24T12:32:19.270Z,39.29
2018-09-24T12:33:29.430Z,40.81
2018-09-24T12:34:39.589Z,41.17
2018-09-24T12:35:49.965Z,42.04
2018-09-24T12:37:00.119Z,42.21
2018-09-24T12:38:10.283Z,43.36
2018-09-24T12:39:20.749Z,43.73
2018-09-24T12:40:31.069Z,43.34
2018-09-24T12:41:41.342Z,42.86
2018-09-24T12:42:51.666Z,42.69
2018-09-24T12:44:01.828Z,42.79
2018-09-24T12:45:12.085Z,42.88
2018-09-24T12:46:22.226Z,42.69
2018-09-24T12:47:32.369Z,42.69
2018-09-24T12:48:42.562Z,43.15
2018-09-24T12:49:52.950Z,43.34
2018-09-24T12:51:02.828Z,42.96
2018-09-24T12:52:12.974Z,43.44
2018-09-24T12:53:23.307Z,43.63
2018-09-24T12:54:33.752Z,43.44
2018-09-24T12:55:44.055Z,43.53
2018-09-24T12:56:54.260Z,43.63
2018-09-24T12:58:04.409Z,43.73
2018-09-24T12:59:14.643Z,44.11
2018-09-24T13:00:24.833Z,44.68
2018-09-24T13:01:34.465Z,44.78
2018-09-24T13:02:44.348Z,44.59
2018-09-24T13:03:54.607Z,45.23
2018-09-24T13:05:04.764Z,45.72
2018-09-24T13:06:14.923Z,46.1
2018-09-24T13:07:25.081Z,46.17
2018-09-24T13:08:35.064Z,46.55
2018-09-24T13:09:44.931Z,47.13
2018-09-24T13:10:55.107Z,48.38
2018-09-24T13:12:05.246Z,48.85
2018-09-24T13:13:15.411Z,49.02
2018-09-24T13:14:25.654Z,49.6
2018-09-24T13:15:35.946Z,49.79
2018-09-24T13:16:46.104Z,49.88
2018-09-24T13:17:56.313Z,49.88
2018-09-24T13:19:06.569Z,49.98
2018-09-24T13:20:17.264Z,49.21
2018-09-24T13:21:27.451Z,49.4
2018-09-24T13:22:37.669Z,49.11
2018-09-24T13:23:47.860Z,48.93
2018-09-24T13:24:57.836Z,49.69
2018-09-24T13:26:07.995Z,49.11
2018-09-24T13:27:18.194Z,49.02
2018-09-24T13:28:28.372Z,49.33
2018-09-24T13:29:38.530Z,49.33
2018-09-24T13:30:48.684Z,49.33
2018-09-24T13:31:58.880Z,49.14
2018-09-24T13:33:09.049Z,48.95
2018-09-24T13:34:19.217Z,48.95
2018-09-24T13:35:29.196Z,48.95
2018-09-24T13:36:39.468Z,48.66
2018-09-24T13:37:49.671Z,48.66
2018-09-24T13:38:59.601Z,49.05
2018-09-24T13:40:09.758Z,49.05
2018-09-24T13:41:19.917Z,48.95
2018-09-24T13:42:30.059Z,48.85
2018-09-24T13:43:40.315Z,48.85
2018-09-24T13:44:50.509Z,49.52
2018-09-24T13:46:00.685Z,49.43
2018-09-24T13:47:10.857Z,49.43
2018-09-24T13:48:21.218Z,49.43
2018-09-24T13:49:31.638Z,49.33
2018-09-24T13:50:41.805Z,49.43
2018-09-24T13:51:51.763Z,49.33
2018-09-24T13:53:01.702Z,49.14
2018-09-24T13:54:12.254Z,49.14
2018-09-24T13:55:22.426Z,49.43
2018-09-24T13:56:32.662Z,49.43
2018-09-24T13:57:42.873Z,49.62
2018-09-24T13:58:53.043Z,48.95
2018-09-24T14:00:02.947Z,48.85
2018-09-24T14:01:13.146Z,49.6
2018-09-24T14:02:23.390Z,49.79
2018-09-24T14:03:33.590Z,50.07
2018-09-24T14:04:43.778Z,49.88
2018-09-24T14:05:53.920Z,49.95
2018-09-24T14:07:04.122Z,50.05
2018-09-24T14:08:14.315Z,50.91
2018-09-24T14:09:24.497Z,51.1
2018-09-24T14:10:34.931Z,51.36
2018-09-24T14:11:45.301Z,51.75
2018-09-24T14:12:55.439Z,51.93
2018-09-24T14:14:05.591Z,52.03
2018-09-24T14:15:15.778Z,52.13
2018-09-24T14:16:25.943Z,52.22
2018-09-24T14:17:36.103Z,52.51
2018-09-24T14:18:46.249Z,52.22
2018-09-24T14:19:56.471Z,52.73
2018-09-24T14:21:06.504Z,52.15
2018-09-24T14:22:16.412Z,52.44
2018-09-24T14:23:26.790Z,52.15
2018-09-24T14:24:36.468Z,52.06
2018-09-24T14:25:46.682Z,52.25
2018-09-24T14:26:57.116Z,52.15
2018-09-24T14:28:07.264Z,52.25
2018-09-24T14:29:17.471Z,51.97
2018-09-24T14:30:27.315Z,52.15
2018-09-24T14:31:37.481Z,52.06
2018-09-24T14:32:47.635Z,52.15
2018-09-24T14:33:58.097Z,52.15
2018-09-24T14:35:08.583Z,52.44
2018-09-24T14:36:18.906Z,52.54
2018-09-24T14:37:29.066Z,53.11
2018-09-24T14:38:39.290Z,53.02
2018-09-24T14:39:49.555Z,53.3
2018-09-24T14:40:59.743Z,53.02
2018-09-24T14:42:09.911Z,52.92
2018-09-24T14:43:20.099Z,52.73
2018-09-24T14:44:30.307Z,53.02
2018-09-24T14:45:40.590Z,52.83
2018-09-24T14:46:50.729Z,53.3
2018-09-24T14:48:00.249Z,53.02
2018-09-24T14:49:10.378Z,53.4
2018-09-24T14:50:20.261Z,53.3
2018-09-24T14:51:30.424Z,53.11
2018-09-24T14:52:40.590Z,52.73
2018-09-24T14:53:50.777Z,53.4
2018-09-24T14:55:00.951Z,53.59
2018-09-24T14:56:11.088Z,53.11
2018-09-24T14:57:21.262Z,52.73
2018-09-24T14:58:31.153Z,52.44
2018-09-24T14:59:41.344Z,52.63
2018-09-24T15:00:51.537Z,52.63
2018-09-24T15:02:00.905Z,53.3
2018-09-24T15:03:11.141Z,53.28
2018-09-24T15:04:21.412Z,53.66
2018-09-24T15:05:31.560Z,53.94
2018-09-24T15:06:41.710Z,53.94
2018-09-24T15:07:52.327Z,54.43
2018-09-24T15:09:01.893Z,54.23